sensor_id;sensor_type;location;lat;lon;timestamp;P1;durP1;ratioP1;P2;durP2;ratioP2
47113;SDS011;32867;51.556;6.832;2023-06-22T00:03:15;6.40;;;4.35;;
47113;SDS011;32867;51.556;6.832;2023-06-22T00:08:17;8.07;;;5.80;;
47113;SDS011;32867;51.556;6.832;2023-06-22T00:13:18;8.65;;;4.97;;
47113;SDS011;32867;51.556;6.832;2023-06-22T00:18:19;6.80;;;4.80;;
47113;SDS011;32867;51.556;6.832;2023-06-22T00:23:20;10.18;;;5.72;;
47113;SDS011;32867;51.556;6.832;2023-06-22T00:28:20;6.15;;;4.75;;
47113;SDS011;32867;51.556;6.832;2023-06-22T00:33:21;7.90;;;5.72;;
47113;SDS011;32867;51.556;6.832;2023-06-22T00:38:22;9.32;;;5.75;;
47113;SDS011;32867;51.556;6.832;2023-06-22T00:43:22;7.35;;;5.32;;
47113;SDS011;32867;51.556;6.832;2023-06-22T00:48:23;7.38;;;4.82;;
47113;SDS011;32867;51.556;6.832;2023-06-22T00:53:25;7.22;;;4.82;;
47113;SDS011;32867;51.556;6.832;2023-06-22T00:58:25;6.88;;;4.75;;
47113;SDS011;32867;51.556;6.832;2023-06-22T01:03:26;8.18;;;5.38;;
47113;SDS011;32867;51.556;6.832;2023-06-22T01:25:10;6.07;;;5.15;;
47113;SDS011;32867;51.556;6.832;2023-06-22T01:30:19;5.97;;;4.68;;
47113;SDS011;32867;51.556;6.832;2023-06-22T01:35:20;8.20;;;5.90;;
47113;SDS011;32867;51.556;6.832;2023-06-22T01:40:21;9.70;;;6.85;;
47113;SDS011;32867;51.556;6.832;2023-06-22T01:45:25;7.13;;;6.18;;
47113;SDS011;32867;51.556;6.832;2023-06-22T01:50:27;8.07;;;6.38;;
47113;SDS011;32867;51.556;6.832;2023-06-22T01:55:29;9.68;;;7.53;;
47113;SDS011;32867;51.556;6.832;2023-06-22T02:00:31;9.25;;;6.75;;
47113;SDS011;32867;51.556;6.832;2023-06-22T02:05:38;8.52;;;6.70;;
47113;SDS011;32867;51.556;6.832;2023-06-22T02:10:43;10.85;;;7.10;;
47113;SDS011;32867;51.556;6.832;2023-06-22T02:15:46;9.85;;;7.05;;
47113;SDS011;32867;51.556;6.832;2023-06-22T02:20:47;10.00;;;7.45;;
47113;SDS011;32867;51.556;6.832;2023-06-22T02:25:48;10.60;;;8.85;;
47113;SDS011;32867;51.556;6.832;2023-06-22T02:30:49;9.18;;;7.57;;
47113;SDS011;32867;51.556;6.832;2023-06-22T02:35:50;9.15;;;6.93;;
47113;SDS011;32867;51.556;6.832;2023-06-22T02:40:51;9.85;;;7.90;;
47113;SDS011;32867;51.556;6.832;2023-06-22T02:45:51;8.70;;;6.03;;
47113;SDS011;32867;51.556;6.832;2023-06-22T02:50:52;8.68;;;7.03;;
47113;SDS011;32867;51.556;6.832;2023-06-22T02:55:53;8.90;;;7.05;;
47113;SDS011;32867;51.556;6.832;2023-06-22T03:00:54;8.82;;;7.18;;
47113;SDS011;32867;51.556;6.832;2023-06-22T03:05:55;9.35;;;7.63;;
47113;SDS011;32867;51.556;6.832;2023-06-22T03:10:58;10.15;;;6.88;;
47113;SDS011;32867;51.556;6.832;2023-06-22T03:15:59;8.05;;;6.75;;
47113;SDS011;32867;51.556;6.832;2023-06-22T03:21:00;7.75;;;6.90;;
47113;SDS011;32867;51.556;6.832;2023-06-22T03:26:02;11.50;;;9.65;;
47113;SDS011;32867;51.556;6.832;2023-06-22T03:31:04;10.07;;;7.82;;
47113;SDS011;32867;51.556;6.832;2023-06-22T03:36:08;12.70;;;10.80;;
47113;SDS011;32867;51.556;6.832;2023-06-22T03:41:09;9.75;;;7.85;;
47113;SDS011;32867;51.556;6.832;2023-06-22T03:46:09;10.18;;;9.18;;
47113;SDS011;32867;51.556;6.832;2023-06-22T03:51:10;11.00;;;8.43;;
47113;SDS011;32867;51.556;6.832;2023-06-22T03:56:11;10.07;;;8.75;;
47113;SDS011;32867;51.556;6.832;2023-06-22T04:01:12;10.07;;;8.30;;
47113;SDS011;32867;51.556;6.832;2023-06-22T04:06:12;10.88;;;9.60;;
47113;SDS011;32867;51.556;6.832;2023-06-22T04:11:13;10.52;;;8.68;;
47113;SDS011;32867;51.556;6.832;2023-06-22T04:16:14;10.65;;;8.32;;
47113;SDS011;32867;51.556;6.832;2023-06-22T04:21:14;8.45;;;7.55;;
47113;SDS011;32867;51.556;6.832;2023-06-22T04:26:15;11.02;;;8.23;;
47113;SDS011;32867;51.556;6.832;2023-06-22T04:31:16;9.68;;;8.20;;
47113;SDS011;32867;51.556;6.832;2023-06-22T04:36:17;10.23;;;8.70;;
47113;SDS011;32867;51.556;6.832;2023-06-22T04:41:17;12.00;;;9.90;;
47113;SDS011;32867;51.556;6.832;2023-06-22T04:46:23;14.43;;;12.13;;
47113;SDS011;32867;51.556;6.832;2023-06-22T04:51:24;13.95;;;10.13;;
47113;SDS011;32867;51.556;6.832;2023-06-22T05:01:31;9.18;;;8.15;;
47113;SDS011;32867;51.556;6.832;2023-06-22T05:06:32;11.23;;;8.90;;
47113;SDS011;32867;51.556;6.832;2023-06-22T05:11:32;11.82;;;9.20;;
47113;SDS011;32867;51.556;6.832;2023-06-22T05:16:33;12.23;;;10.30;;
47113;SDS011;32867;51.556;6.832;2023-06-22T05:21:34;12.52;;;10.43;;
47113;SDS011;32867;51.556;6.832;2023-06-22T05:26:34;9.27;;;7.45;;
47113;SDS011;32867;51.556;6.832;2023-06-22T05:31:35;9.43;;;8.25;;
47113;SDS011;32867;51.556;6.832;2023-06-22T05:36:36;10.68;;;8.35;;
47113;SDS011;32867;51.556;6.832;2023-06-22T05:41:37;8.50;;;7.60;;
47113;SDS011;32867;51.556;6.832;2023-06-22T05:46:40;11.63;;;8.57;;
47113;SDS011;32867;51.556;6.832;2023-06-22T05:51:44;11.65;;;9.40;;
47113;SDS011;32867;51.556;6.832;2023-06-22T05:56:45;8.85;;;7.82;;
47113;SDS011;32867;51.556;6.832;2023-06-22T06:01:45;9.93;;;8.75;;
47113;SDS011;32867;51.556;6.832;2023-06-22T06:06:50;9.52;;;7.22;;
47113;SDS011;32867;51.556;6.832;2023-06-22T06:11:50;8.93;;;7.90;;
47113;SDS011;32867;51.556;6.832;2023-06-22T06:16:51;10.32;;;9.25;;
47113;SDS011;32867;51.556;6.832;2023-06-22T06:21:51;11.63;;;9.13;;
47113;SDS011;32867;51.556;6.832;2023-06-22T06:26:52;10.00;;;7.93;;
47113;SDS011;32867;51.556;6.832;2023-06-22T06:31:53;9.70;;;7.93;;
47113;SDS011;32867;51.556;6.832;2023-06-22T06:36:53;11.07;;;7.38;;
47113;SDS011;32867;51.556;6.832;2023-06-22T06:41:54;12.15;;;8.05;;
47113;SDS011;32867;51.556;6.832;2023-06-22T06:46:55;8.35;;;7.47;;
47113;SDS011;32867;51.556;6.832;2023-06-22T06:51:55;9.77;;;7.53;;
47113;SDS011;32867;51.556;6.832;2023-06-22T06:56:56;10.77;;;7.90;;
47113;SDS011;32867;51.556;6.832;2023-06-22T07:01:57;11.82;;;9.38;;
47113;SDS011;32867;51.556;6.832;2023-06-22T07:06:58;10.75;;;9.65;;
47113;SDS011;32867;51.556;6.832;2023-06-22T07:12:01;14.73;;;12.07;;
47113;SDS011;32867;51.556;6.832;2023-06-22T07:17:01;11.93;;;10.73;;
47113;SDS011;32867;51.556;6.832;2023-06-22T07:22:02;15.13;;;12.25;;
47113;SDS011;32867;51.556;6.832;2023-06-22T07:27:03;11.27;;;8.88;;
47113;SDS011;32867;51.556;6.832;2023-06-22T07:32:06;11.88;;;10.68;;
47113;SDS011;32867;51.556;6.832;2023-06-22T07:37:08;11.68;;;10.48;;
47113;SDS011;32867;51.556;6.832;2023-06-22T07:42:09;13.95;;;11.98;;
47113;SDS011;32867;51.556;6.832;2023-06-22T07:47:10;11.60;;;10.40;;
47113;SDS011;32867;51.556;6.832;2023-06-22T07:52:10;13.30;;;11.98;;
47113;SDS011;32867;51.556;6.832;2023-06-22T07:57:11;12.35;;;10.77;;
47113;SDS011;32867;51.556;6.832;2023-06-22T08:02:12;13.15;;;10.98;;
47113;SDS011;32867;51.556;6.832;2023-06-22T08:07:12;15.13;;;13.63;;
47113;SDS011;32867;51.556;6.832;2023-06-22T08:12:13;12.88;;;11.57;;
47113;SDS011;32867;51.556;6.832;2023-06-22T08:17:14;11.82;;;10.48;;
47113;SDS011;32867;51.556;6.832;2023-06-22T08:22:15;11.18;;;10.07;;
47113;SDS011;32867;51.556;6.832;2023-06-22T08:27:16;10.95;;;9.80;;
47113;SDS011;32867;51.556;6.832;2023-06-22T08:32:21;13.57;;;12.18;;
47113;SDS011;32867;51.556;6.832;2023-06-22T08:37:21;17.80;;;13.20;;
47113;SDS011;32867;51.556;6.832;2023-06-22T08:42:25;12.95;;;11.05;;
47113;SDS011;32867;51.556;6.832;2023-06-22T08:47:27;15.05;;;12.35;;
47113;SDS011;32867;51.556;6.832;2023-06-22T08:52:28;12.75;;;11.45;;
47113;SDS011;32867;51.556;6.832;2023-06-22T08:57:29;12.90;;;11.50;;
47113;SDS011;32867;51.556;6.832;2023-06-22T09:02:30;15.00;;;11.77;;
47113;SDS011;32867;51.556;6.832;2023-06-22T09:07:32;14.32;;;12.77;;
47113;SDS011;32867;51.556;6.832;2023-06-22T09:12:34;16.70;;;13.38;;
47113;SDS011;32867;51.556;6.832;2023-06-22T09:17:37;14.32;;;11.50;;
47113;SDS011;32867;51.556;6.832;2023-06-22T09:22:38;13.30;;;11.48;;
47113;SDS011;32867;51.556;6.832;2023-06-22T09:27:39;13.23;;;11.48;;
47113;SDS011;32867;51.556;6.832;2023-06-22T09:32:40;13.27;;;11.63;;
47113;SDS011;32867;51.556;6.832;2023-06-22T09:37:40;13.90;;;12.43;;
47113;SDS011;32867;51.556;6.832;2023-06-22T09:42:41;14.90;;;13.27;;
47113;SDS011;32867;51.556;6.832;2023-06-22T09:47:42;13.27;;;11.63;;
47113;SDS011;32867;51.556;6.832;2023-06-22T09:52:42;15.13;;;10.98;;
47113;SDS011;32867;51.556;6.832;2023-06-22T09:57:46;13.98;;;12.50;;
47113;SDS011;32867;51.556;6.832;2023-06-22T10:02:47;11.88;;;10.25;;
47113;SDS011;32867;51.556;6.832;2023-06-22T10:07:48;11.93;;;10.73;;
47113;SDS011;32867;51.556;6.832;2023-06-22T10:12:54;12.70;;;9.07;;
47113;SDS011;32867;51.556;6.832;2023-06-22T10:17:57;12.00;;;10.57;;
47113;SDS011;32867;51.556;6.832;2023-06-22T10:22:57;15.98;;;11.75;;
47113;SDS011;32867;51.556;6.832;2023-06-22T10:27:58;10.93;;;9.15;;
47113;SDS011;32867;51.556;6.832;2023-06-22T10:32:59;11.13;;;9.80;;
47113;SDS011;32867;51.556;6.832;2023-06-22T10:38:00;12.80;;;10.65;;
47113;SDS011;32867;51.556;6.832;2023-06-22T10:43:00;12.63;;;9.80;;
47113;SDS011;32867;51.556;6.832;2023-06-22T10:48:01;11.60;;;9.60;;
47113;SDS011;32867;51.556;6.832;2023-06-22T10:53:02;12.25;;;10.68;;
47113;SDS011;32867;51.556;6.832;2023-06-22T10:58:02;10.88;;;8.80;;
47113;SDS011;32867;51.556;6.832;2023-06-22T11:03:03;10.07;;;9.00;;
47113;SDS011;32867;51.556;6.832;2023-06-22T11:08:04;10.20;;;9.10;;
47113;SDS011;32867;51.556;6.832;2023-06-22T11:13:04;10.40;;;8.52;;
47113;SDS011;32867;51.556;6.832;2023-06-22T11:18:09;10.10;;;8.05;;
47113;SDS011;32867;51.556;6.832;2023-06-22T11:23:10;9.15;;;7.80;;
47113;SDS011;32867;51.556;6.832;2023-06-22T11:28:12;9.25;;;7.88;;
47113;SDS011;32867;51.556;6.832;2023-06-22T11:33:13;9.77;;;7.80;;
47113;SDS011;32867;51.556;6.832;2023-06-22T11:38:13;8.68;;;7.80;;
47113;SDS011;32867;51.556;6.832;2023-06-22T11:43:14;8.82;;;6.47;;
47113;SDS011;32867;51.556;6.832;2023-06-22T11:48:15;8.40;;;7.50;;
47113;SDS011;32867;51.556;6.832;2023-06-22T11:53:16;9.20;;;8.20;;
47113;SDS011;32867;51.556;6.832;2023-06-22T11:58:17;9.73;;;8.68;;
47113;SDS011;32867;51.556;6.832;2023-06-22T12:03:18;8.27;;;7.43;;
47113;SDS011;32867;51.556;6.832;2023-06-22T12:08:19;9.23;;;7.93;;
47113;SDS011;32867;51.556;6.832;2023-06-22T12:13:20;9.95;;;8.95;;
47113;SDS011;32867;51.556;6.832;2023-06-22T12:18:21;9.73;;;8.73;;
47113;SDS011;32867;51.556;6.832;2023-06-22T12:23:21;11.50;;;10.40;;
47113;SDS011;32867;51.556;6.832;2023-06-22T12:28:22;10.48;;;9.48;;
47113;SDS011;32867;51.556;6.832;2023-06-22T12:33:23;10.57;;;8.85;;
47113;SDS011;32867;51.556;6.832;2023-06-22T12:38:24;11.40;;;9.48;;
47113;SDS011;32867;51.556;6.832;2023-06-22T12:43:26;10.32;;;9.27;;
47113;SDS011;32867;51.556;6.832;2023-06-22T12:48:27;14.98;;;13.35;;
47113;SDS011;32867;51.556;6.832;2023-06-22T12:53:28;16.38;;;14.73;;
47113;SDS011;32867;51.556;6.832;2023-06-22T12:58:28;17.10;;;15.15;;
47113;SDS011;32867;51.556;6.832;2023-06-22T13:03:29;15.52;;;13.93;;
47113;SDS011;32867;51.556;6.832;2023-06-22T13:08:30;17.27;;;15.68;;
47113;SDS011;32867;51.556;6.832;2023-06-22T13:13:31;17.08;;;15.38;;
47113;SDS011;32867;51.556;6.832;2023-06-22T13:18:34;16.33;;;14.63;;
47113;SDS011;32867;51.556;6.832;2023-06-22T13:23:35;15.48;;;13.98;;
47113;SDS011;32867;51.556;6.832;2023-06-22T13:28:36;18.33;;;16.38;;
47113;SDS011;32867;51.556;6.832;2023-06-22T13:33:37;16.50;;;14.88;;
47113;SDS011;32867;51.556;6.832;2023-06-22T13:38:38;16.25;;;14.75;;
47113;SDS011;32867;51.556;6.832;2023-06-22T13:43:39;17.88;;;15.88;;
47113;SDS011;32867;51.556;6.832;2023-06-22T13:48:39;15.77;;;14.20;;
47113;SDS011;32867;51.556;6.832;2023-06-22T13:53:40;17.10;;;15.40;;
47113;SDS011;32867;51.556;6.832;2023-06-22T13:58:41;17.98;;;16.27;;
47113;SDS011;32867;51.556;6.832;2023-06-22T14:03:43;19.42;;;17.38;;
47113;SDS011;32867;51.556;6.832;2023-06-22T14:08:45;17.80;;;16.10;;
47113;SDS011;32867;51.556;6.832;2023-06-22T14:13:46;18.20;;;16.50;;
47113;SDS011;32867;51.556;6.832;2023-06-22T14:18:47;20.20;;;18.25;;
47113;SDS011;32867;51.556;6.832;2023-06-22T14:23:47;18.77;;;17.08;;
47113;SDS011;32867;51.556;6.832;2023-06-22T14:28:49;14.75;;;13.35;;
47113;SDS011;32867;51.556;6.832;2023-06-22T14:33:52;15.10;;;13.70;;
47113;SDS011;32867;51.556;6.832;2023-06-22T14:38:53;15.32;;;13.80;;
47113;SDS011;32867;51.556;6.832;2023-06-22T14:43:54;15.90;;;14.35;;
47113;SDS011;32867;51.556;6.832;2023-06-22T14:48:54;16.55;;;14.95;;
47113;SDS011;32867;51.556;6.832;2023-06-22T14:53:55;15.15;;;13.57;;
47113;SDS011;32867;51.556;6.832;2023-06-22T14:58:56;17.52;;;15.82;;
47113;SDS011;32867;51.556;6.832;2023-06-22T15:03:56;16.75;;;15.10;;
47113;SDS011;32867;51.556;6.832;2023-06-22T15:08:57;17.25;;;15.55;;
47113;SDS011;32867;51.556;6.832;2023-06-22T15:14:00;18.23;;;16.42;;
47113;SDS011;32867;51.556;6.832;2023-06-22T15:19:01;17.75;;;15.90;;
47113;SDS011;32867;51.556;6.832;2023-06-22T15:24:02;21.05;;;19.05;;
47113;SDS011;32867;51.556;6.832;2023-06-22T15:29:03;17.98;;;16.08;;
47113;SDS011;32867;51.556;6.832;2023-06-22T15:34:03;16.95;;;15.15;;
47113;SDS011;32867;51.556;6.832;2023-06-22T15:39:04;22.88;;;20.67;;
47113;SDS011;32867;51.556;6.832;2023-06-22T15:44:05;17.58;;;15.88;;
47113;SDS011;32867;51.556;6.832;2023-06-22T15:49:06;19.13;;;17.23;;
47113;SDS011;32867;51.556;6.832;2023-06-22T15:54:07;17.42;;;15.73;;
47113;SDS011;32867;51.556;6.832;2023-06-22T15:59:08;17.02;;;15.27;;
47113;SDS011;32867;51.556;6.832;2023-06-22T16:04:08;16.38;;;14.77;;
47113;SDS011;32867;51.556;6.832;2023-06-22T16:09:09;16.38;;;14.80;;
47113;SDS011;32867;51.556;6.832;2023-06-22T16:14:10;17.58;;;15.82;;
47113;SDS011;32867;51.556;6.832;2023-06-22T16:19:11;21.90;;;15.50;;
47113;SDS011;32867;51.556;6.832;2023-06-22T16:24:11;18.15;;;16.33;;
47113;SDS011;32867;51.556;6.832;2023-06-22T16:29:12;18.17;;;16.35;;
47113;SDS011;32867;51.556;6.832;2023-06-22T16:34:13;18.13;;;15.13;;
47113;SDS011;32867;51.556;6.832;2023-06-22T16:39:14;19.77;;;17.67;;
47113;SDS011;32867;51.556;6.832;2023-06-22T16:44:15;77.63;;;50.67;;
47113;SDS011;32867;51.556;6.832;2023-06-22T16:49:16;46.53;;;33.47;;
47113;SDS011;32867;51.556;6.832;2023-06-22T16:54:16;19.80;;;17.67;;
47113;SDS011;32867;51.556;6.832;2023-06-22T16:59:17;16.92;;;15.20;;
47113;SDS011;32867;51.556;6.832;2023-06-22T17:04:23;20.58;;;18.23;;
47113;SDS011;32867;51.556;6.832;2023-06-22T17:09:26;20.27;;;18.17;;
47113;SDS011;32867;51.556;6.832;2023-06-22T17:14:29;32.40;;;24.40;;
47113;SDS011;32867;51.556;6.832;2023-06-22T17:19:30;29.08;;;24.17;;
47113;SDS011;32867;51.556;6.832;2023-06-22T17:24:30;24.58;;;21.20;;
47113;SDS011;32867;51.556;6.832;2023-06-22T17:29:31;25.20;;;19.80;;
47113;SDS011;32867;51.556;6.832;2023-06-22T17:34:35;26.80;;;20.08;;
47113;SDS011;32867;51.556;6.832;2023-06-22T17:39:36;19.25;;;15.77;;
47113;SDS011;32867;51.556;6.832;2023-06-22T17:44:37;19.13;;;17.13;;
47113;SDS011;32867;51.556;6.832;2023-06-22T17:49:37;17.75;;;15.50;;
47113;SDS011;32867;51.556;6.832;2023-06-22T17:54:38;18.00;;;16.10;;
47113;SDS011;32867;51.556;6.832;2023-06-22T17:59:40;28.15;;;25.00;;
47113;SDS011;32867;51.556;6.832;2023-06-22T18:04:41;27.77;;;24.98;;
47113;SDS011;32867;51.556;6.832;2023-06-22T18:09:42;23.67;;;21.17;;
47113;SDS011;32867;51.556;6.832;2023-06-22T18:14:44;25.27;;;22.45;;
47113;SDS011;32867;51.556;6.832;2023-06-22T18:19:45;20.58;;;18.58;;
47113;SDS011;32867;51.556;6.832;2023-06-22T18:24:51;31.33;;;27.98;;
47113;SDS011;32867;51.556;6.832;2023-06-22T18:29:52;19.20;;;17.20;;
47113;SDS011;32867;51.556;6.832;2023-06-22T18:34:55;28.52;;;25.40;;
47113;SDS011;32867;51.556;6.832;2023-06-22T18:39:56;26.02;;;23.48;;
47113;SDS011;32867;51.556;6.832;2023-06-22T18:44:57;28.88;;;26.15;;
47113;SDS011;32867;51.556;6.832;2023-06-22T18:50:07;26.73;;;23.95;;
47113;SDS011;32867;51.556;6.832;2023-06-22T18:55:11;33.83;;;30.38;;
47113;SDS011;32867;51.556;6.832;2023-06-22T19:00:14;31.55;;;25.38;;
47113;SDS011;32867;51.556;6.832;2023-06-22T19:05:16;21.08;;;18.13;;
47113;SDS011;32867;51.556;6.832;2023-06-22T19:15:30;18.13;;;15.70;;
47113;SDS011;32867;51.556;6.832;2023-06-22T19:20:34;15.88;;;14.27;;
47113;SDS011;32867;51.556;6.832;2023-06-22T19:25:34;14.35;;;12.82;;
47113;SDS011;32867;51.556;6.832;2023-06-22T19:30:35;16.70;;;14.05;;
47113;SDS011;32867;51.556;6.832;2023-06-22T19:35:36;15.25;;;13.65;;
47113;SDS011;32867;51.556;6.832;2023-06-22T19:40:38;18.05;;;15.45;;
47113;SDS011;32867;51.556;6.832;2023-06-22T19:45:41;18.52;;;16.52;;
47113;SDS011;32867;51.556;6.832;2023-06-22T19:50:42;14.32;;;12.80;;
47113;SDS011;32867;51.556;6.832;2023-06-22T19:55:44;14.73;;;10.85;;
47113;SDS011;32867;51.556;6.832;2023-06-22T20:00:46;15.25;;;13.70;;
47113;SDS011;32867;51.556;6.832;2023-06-22T20:10:53;16.40;;;14.70;;
47113;SDS011;32867;51.556;6.832;2023-06-22T20:15:57;17.15;;;15.35;;
47113;SDS011;32867;51.556;6.832;2023-06-22T20:21:12;19.95;;;17.83;;
47113;SDS011;32867;51.556;6.832;2023-06-22T20:26:13;21.30;;;18.58;;
47113;SDS011;32867;51.556;6.832;2023-06-22T20:31:16;15.70;;;13.43;;
47113;SDS011;32867;51.556;6.832;2023-06-22T20:36:17;17.10;;;14.55;;
47113;SDS011;32867;51.556;6.832;2023-06-22T20:41:18;17.48;;;15.63;;
47113;SDS011;32867;51.556;6.832;2023-06-22T20:46:18;14.48;;;10.52;;
47113;SDS011;32867;51.556;6.832;2023-06-22T20:51:19;10.63;;;8.95;;
47113;SDS011;32867;51.556;6.832;2023-06-22T20:56:20;9.35;;;8.35;;
47113;SDS011;32867;51.556;6.832;2023-06-22T21:01:21;8.48;;;7.57;;
47113;SDS011;32867;51.556;6.832;2023-06-22T21:06:21;11.13;;;9.95;;
47113;SDS011;32867;51.556;6.832;2023-06-22T21:11:22;9.70;;;8.55;;
47113;SDS011;32867;51.556;6.832;2023-06-22T21:16:23;16.25;;;13.32;;
47113;SDS011;32867;51.556;6.832;2023-06-22T21:21:23;11.40;;;9.98;;
47113;SDS011;32867;51.556;6.832;2023-06-22T21:26:24;10.80;;;9.65;;
47113;SDS011;32867;51.556;6.832;2023-06-22T21:31:25;9.43;;;8.23;;
47113;SDS011;32867;51.556;6.832;2023-06-22T21:36:25;13.07;;;11.18;;
47113;SDS011;32867;51.556;6.832;2023-06-22T21:41:26;13.85;;;11.45;;
47113;SDS011;32867;51.556;6.832;2023-06-22T21:46:27;11.38;;;9.70;;
47113;SDS011;32867;51.556;6.832;2023-06-22T21:51:28;9.40;;;8.25;;
47113;SDS011;32867;51.556;6.832;2023-06-22T21:56:28;11.07;;;8.90;;
47113;SDS011;32867;51.556;6.832;2023-06-22T22:01:29;12.10;;;8.15;;
47113;SDS011;32867;51.556;6.832;2023-06-22T22:06:29;7.88;;;6.80;;
47113;SDS011;32867;51.556;6.832;2023-06-22T22:11:30;9.00;;;6.53;;
47113;SDS011;32867;51.556;6.832;2023-06-22T22:16:31;8.60;;;7.38;;
47113;SDS011;32867;51.556;6.832;2023-06-22T22:21:32;8.18;;;7.05;;
47113;SDS011;32867;51.556;6.832;2023-06-22T22:26:32;12.80;;;10.07;;
47113;SDS011;32867;51.556;6.832;2023-06-22T22:31:35;7.88;;;7.00;;
47113;SDS011;32867;51.556;6.832;2023-06-22T22:36:38;11.93;;;10.32;;
47113;SDS011;32867;51.556;6.832;2023-06-22T22:41:39;10.90;;;9.77;;
47113;SDS011;32867;51.556;6.832;2023-06-22T22:46:40;12.45;;;10.65;;
47113;SDS011;32867;51.556;6.832;2023-06-22T22:51:41;13.45;;;12.10;;
47113;SDS011;32867;51.556;6.832;2023-06-22T22:56:42;12.52;;;10.18;;
47113;SDS011;32867;51.556;6.832;2023-06-22T23:01:43;14.60;;;12.50;;
47113;SDS011;32867;51.556;6.832;2023-06-22T23:06:44;15.52;;;12.95;;
47113;SDS011;32867;51.556;6.832;2023-06-22T23:11:45;14.52;;;12.07;;
47113;SDS011;32867;51.556;6.832;2023-06-22T23:16:46;11.80;;;10.40;;
47113;SDS011;32867;51.556;6.832;2023-06-22T23:21:47;12.38;;;10.02;;
47113;SDS011;32867;51.556;6.832;2023-06-22T23:26:48;11.25;;;9.68;;
47113;SDS011;32867;51.556;6.832;2023-06-22T23:31:51;17.35;;;12.80;;
47113;SDS011;32867;51.556;6.832;2023-06-22T23:36:53;12.35;;;10.57;;
47113;SDS011;32867;51.556;6.832;2023-06-22T23:41:54;16.08;;;11.63;;
47113;SDS011;32867;51.556;6.832;2023-06-22T23:46:57;14.73;;;11.73;;
47113;SDS011;32867;51.556;6.832;2023-06-22T23:51:57;14.88;;;11.88;;
47113;SDS011;32867;51.556;6.832;2023-06-22T23:56:58;15.45;;;11.85;;
